Time;durP1;ratioP1;P1;durP2;ratioP2;P2;SDS_P1;SDS_P2;PMS_P1;PMS_P2;Temp;Humidity;BMP_temperature;BMP_pressure;BME280_temperature;BME280_humidity;BME280_pressure;Samples;Min_cycle;Max_cycle;Signal;HPM_P1;HPM_P2
2021/06/07 00:00:29;;;;;;;1.4;1.3;;;;;;;;;;;;;
2021/06/07 00:02:54;;;;;;;1.8;1.5;;;;;;;;;;;;;
2021/06/07 00:05:21;;;;;;;2.1;1.3;;;;;;;;;;;;;
2021/06/07 00:07:46;;;;;;;3.2;1.4;;;;;;;;;;;;;
2021/06/07 00:10:12;;;;;;;1.3;1.2;;;;;;;;;;;;;
2021/06/07 00:12:37;;;;;;;2.2;1.4;;;;;;;;;;;;;
2021/06/07 00:15:03;;;;;;;1.6;1.4;;;;;;;;;;;;;
2021/06/07 00:17:27;;;;;;;1.1;1;;;;;;;;;;;;;
2021/06/07 00:19:52;;;;;;;4;1.2;;;;;;;;;;;;;
2021/06/07 00:22:17;;;;;;;1.6;0.9;;;;;;;;;;;;;
2021/06/07 00:24:42;;;;;;;2.8;0.8;;;;;;;;;;;;;
2021/06/07 00:27:09;;;;;;;0.7;0.7;;;;;;;;;;;;;
2021/06/07 00:29:34;;;;;;;1.9;0.8;;;;;;;;;;;;;
2021/06/07 00:31:59;;;;;;;1.9;0.9;;;;;;;;;;;;;
2021/06/07 00:34:24;;;;;;;1.1;0.9;;;;;;;;;;;;;
2021/06/07 00:36:51;;;;;;;0.9;0.9;;;;;;;;;;;;;
2021/06/07 00:39:16;;;;;;;0.9;0.9;;;;;;;;;;;;;
2021/06/07 00:41:41;;;;;;;1.4;0.7;;;;;;;;;;;;;
2021/06/07 00:44:07;;;;;;;0.6;0.6;;;;;;;;;;;;;
2021/06/07 00:46:33;;;;;;;1.6;0.6;;;;;;;;;;;;;
2021/06/07 00:48:58;;;;;;;0.9;0.8;;;;;;;;;;;;;
2021/06/07 00:51:24;;;;;;;0.7;0.7;;;;;;;;;;;;;
2021/06/07 00:53:49;;;;;;;1.6;0.7;;;;;;;;;;;;;
2021/06/07 00:56:14;;;;;;;2.6;0.8;;;;;;;;;;;;;
2021/06/07 00:58:39;;;;;;;0.8;0.7;;;;;;;;;;;;;
2021/06/07 01:01:06;;;;;;;0.9;0.7;;;;;;;;;;;;;
2021/06/07 01:03:31;;;;;;;0.7;0.7;;;;;;;;;;;;;
2021/06/07 01:05:56;;;;;;;0.7;0.7;;;;;;;;;;;;;
2021/06/07 01:08:22;;;;;;;1.4;1.1;;;;;;;;;;;;;
2021/06/07 01:10:47;;;;;;;3.9;1.7;;;;;;;;;;;;;
2021/06/07 01:13:13;;;;;;;2.1;1.4;;;;;;;;;;;;;
2021/06/07 01:15:37;;;;;;;3.8;1.8;;;;;;;;;;;;;
2021/06/07 01:18:02;;;;;;;3.9;1.2;;;;;;;;;;;;;
2021/06/07 01:20:27;;;;;;;2.1;1.3;;;;;;;;;;;;;
2021/06/07 01:22:52;;;;;;;1.6;1.2;;;;;;;;;;;;;
2021/06/07 01:25:17;;;;;;;2;1;;;;;;;;;;;;;
2021/06/07 01:27:43;;;;;;;2.2;1.2;;;;;;;;;;;;;
2021/06/07 01:30:08;;;;;;;1.9;1.1;;;;;;;;;;;;;
2021/06/07 01:32:34;;;;;;;3.8;1.1;;;;;;;;;;;;;
2021/06/07 01:34:59;;;;;;;2;1;;;;;;;;;;;;;
2021/06/07 01:37:26;;;;;;;1.2;0.9;;;;;;;;;;;;;
2021/06/07 01:39:51;;;;;;;1.9;1;;;;;;;;;;;;;
2021/06/07 01:42:18;;;;;;;1.5;1.4;;;;;;;;;;;;;
2021/06/07 01:44:43;;;;;;;2.4;1.1;;;;;;;;;;;;;
2021/06/07 01:47:08;;;;;;;1.8;1.2;;;;;;;;;;;;;
2021/06/07 01:49:34;;;;;;;3.6;1.4;;;;;;;;;;;;;
2021/06/07 01:51:59;;;;;;;4.2;1.3;;;;;;;;;;;;;
2021/06/07 01:54:24;;;;;;;1.5;1.4;;;;;;;;;;;;;
2021/06/07 01:56:50;;;;;;;2.3;1.5;;;;;;;;;;;;;
2021/06/07 01:59:15;;;;;;;3.9;1.7;;;;;;;;;;;;;
2021/06/07 02:01:41;;;;;;;2.1;1.3;;;;;;;;;;;;;
2021/06/07 02:04:06;;;;;;;2;1.2;;;;;;;;;;;;;
2021/06/07 02:06:32;;;;;;;1.5;1.3;;;;;;;;;;;;;
2021/06/07 02:08:57;;;;;;;1.3;1.1;;;;;;;;;;;;;
2021/06/07 02:11:23;;;;;;;4;1.2;;;;;;;;;;;;;
2021/06/07 02:13:49;;;;;;;1.3;1.2;;;;;;;;;;;;;
2021/06/07 02:16:15;;;;;;;1.6;1.4;;;;;;;;;;;;;
2021/06/07 02:18:40;;;;;;;1.2;1.1;;;;;;;;;;;;;
2021/06/07 02:21:05;;;;;;;1.4;1.3;;;;;;;;;;;;;
2021/06/07 02:23:31;;;;;;;2.1;1.5;;;;;;;;;;;;;
2021/06/07 02:25:57;;;;;;;1.4;1.3;;;;;;;;;;;;;
2021/06/07 02:28:21;;;;;;;2.4;1.4;;;;;;;;;;;;;
2021/06/07 02:30:48;;;;;;;4;1.5;;;;;;;;;;;;;
2021/06/07 02:33:13;;;;;;;2.1;1.4;;;;;;;;;;;;;
2021/06/07 02:35:39;;;;;;;2.6;1.5;;;;;;;;;;;;;
2021/06/07 02:38:04;;;;;;;2.1;1.5;;;;;;;;;;;;;
2021/06/07 02:40:29;;;;;;;3.9;2.1;;;;;;;;;;;;;
2021/06/07 02:42:54;;;;;;;2.3;1.7;;;;;;;;;;;;;
2021/06/07 02:45:19;;;;;;;2;1.4;;;;;;;;;;;;;
2021/06/07 02:47:45;;;;;;;3.5;1.8;;;;;;;;;;;;;
2021/06/07 02:50:10;;;;;;;4.4;1.8;;;;;;;;;;;;;
2021/06/07 02:52:46;;;;;;;2.3;1.6;;;;;;;;;;;;;
2021/06/07 02:55:01;;;;;;;2.5;1.3;;;;;;;;;;;;;
2021/06/07 02:57:27;;;;;;;2.6;1.5;;;;;;;;;;;;;
2021/06/07 02:59:52;;;;;;;3.1;1.6;;;;;;;;;;;;;
2021/06/07 03:02:19;;;;;;;1.7;1.2;;;;;;;;;;;;;
2021/06/07 03:04:44;;;;;;;2.5;1.2;;;;;;;;;;;;;
2021/06/07 03:07:10;;;;;;;2.8;1.5;;;;;;;;;;;;;
2021/06/07 03:09:35;;;;;;;5.3;1.8;;;;;;;;;;;;;
2021/06/07 03:12:03;;;;;;;2.1;1.3;;;;;;;;;;;;;
2021/06/07 03:14:26;;;;;;;3.6;1.4;;;;;;;;;;;;;
2021/06/07 03:16:52;;;;;;;2.6;1.3;;;;;;;;;;;;;
2021/06/07 03:19:17;;;;;;;2.4;1.3;;;;;;;;;;;;;
2021/06/07 03:21:44;;;;;;;2;0.8;;;;;;;;;;;;;
2021/06/07 03:24:09;;;;;;;1.7;0.9;;;;;;;;;;;;;
2021/06/07 03:26:35;;;;;;;2.9;1.4;;;;;;;;;;;;;
2021/06/07 03:29:00;;;;;;;1.1;1;;;;;;;;;;;;;
2021/06/07 03:31:26;;;;;;;3.2;1.4;;;;;;;;;;;;;
2021/06/07 03:33:52;;;;;;;3.6;1.6;;;;;;;;;;;;;
2021/06/07 03:36:17;;;;;;;4;1.4;;;;;;;;;;;;;
2021/06/07 03:38:42;;;;;;;3.1;1.8;;;;;;;;;;;;;
2021/06/07 03:41:08;;;;;;;2.2;1.6;;;;;;;;;;;;;
2021/06/07 03:43:33;;;;;;;5.6;1.8;;;;;;;;;;;;;
2021/06/07 03:45:59;;;;;;;1.6;1.5;;;;;;;;;;;;;
2021/06/07 03:48:24;;;;;;;2.6;1.2;;;;;;;;;;;;;
2021/06/07 03:50:50;;;;;;;1.3;1;;;;;;;;;;;;;
2021/06/07 03:53:15;;;;;;;2;0.9;;;;;;;;;;;;;
2021/06/07 03:55:41;;;;;;;1.8;1.2;;;;;;;;;;;;;
2021/06/07 03:58:07;;;;;;;2.1;1.5;;;;;;;;;;;;;
2021/06/07 04:02:30;;;;;;;3;1.4;;;;;;;15.81;93.34473;941.0848;;;;
2021/06/07 04:04:55;;;;;;;2.5;1.4;;;;;;;15.71;93.69238;941.0461;;;;
2021/06/07 04:07:21;;;;;;;4;1.6;;;;;;;15.73;93.92773;941.091;;;;
2021/06/07 04:09:47;;;;;;;3;1.7;;;;;;;15.7;94.37305;941.1217;;;;
2021/06/07 04:12:14;;;;;;;2.1;1.5;;;;;;;15.77;94.04297;941.098;;;;
2021/06/07 04:14:39;;;;;;;2.3;1.7;;;;;;;15.86;93.65625;941.1498;;;;
2021/06/07 04:17:09;;;;;;;3.3;1.7;;;;;;;15.91;93.34277;941.1656;;;;
2021/06/07 04:19:38;;;;;;;3.1;1.9;;;;;;;15.93;93.0127;941.1318;;;;
2021/06/07 04:22:03;;;;;;;4.1;1.7;;;;;;;15.84;93.7334;941.1934;;;;
2021/06/07 04:24:31;;;;;;;2.5;1.7;;;;;;;15.86;94.19922;941.1901;;;;
2021/06/07 04:26:56;;;;;;;1.6;1.5;;;;;;;15.89;94.18262;941.1666;;;;
2021/06/07 04:29:22;;;;;;;2.7;1.7;;;;;;;15.98;93.64648;941.125;;;;
2021/06/07 04:31:48;;;;;;;11.6;9;;;;;;;15.96;94.04785;941.1228;;;;
2021/06/07 04:34:15;;;;;;;16.9;11.6;;;;;;;16.04;94.00684;941.0944;;;;
2021/06/07 04:36:40;;;;;;;2.6;1.9;;;;;;;16.1;93.41797;941.0835;;;;
2021/06/07 04:39:07;;;;;;;3;1.8;;;;;;;16.15;92.6543;941.1097;;;;
2021/06/07 04:41:32;;;;;;;3;2.4;;;;;;;16.15;92.58496;941.043;;;;
2021/06/07 04:43:59;;;;;;;8.2;5.5;;;;;;;16.19;92.29199;941.0724;;;;
2021/06/07 04:46:24;;;;;;;5.6;4.9;;;;;;;16.2;92.1543;941.0836;;;;
2021/06/07 04:48:50;;;;;;;8.6;5.5;;;;;;;16.19;92.29199;941.1046;;;;
2021/06/07 04:51:15;;;;;;;10.9;7.8;;;;;;;16.15;92.71191;941.1153;;;;
2021/06/07 04:53:41;;;;;;;13;10.1;;;;;;;16.16;92.60938;941.0694;;;;
2021/06/07 04:59:47;;;;;;;2.5;2;;;;;;;16.14;94.13281;941.0447;;;;
2021/06/07 05:02:12;;;;;;;4.7;2.2;;;;;;;16.22;93.65039;940.9713;;;;
2021/06/07 05:04:38;;;;;;;7.4;2.7;;;;;;;16.3;93.61035;940.9264;;;;
2021/06/07 05:07:03;;;;;;;2.6;2;;;;;;;16.27;92.4248;940.9033;;;;
2021/06/07 05:09:29;;;;;;;4.3;2.1;;;;;;;16.36;92.87402;940.9669;;;;
2021/06/07 05:11:54;;;;;;;3.3;1.8;;;;;;;16.5;91.76563;941.0528;;;;
2021/06/07 05:14:21;;;;;;;2.7;1.9;;;;;;;16.6;90.73535;941.1194;;;;
2021/06/07 05:16:46;;;;;;;4.2;2.1;;;;;;;16.71;90.05078;941.0787;;;;
2021/06/07 05:19:12;;;;;;;4.4;2.2;;;;;;;16.77;89.69336;941.1392;;;;
2021/06/07 05:21:37;;;;;;;3.4;2.2;;;;;;;16.87;88.64746;941.0637;;;;
2021/06/07 05:24:05;;;;;;;3.6;2.3;;;;;;;17;88.10547;941.0616;;;;
2021/06/07 05:26:30;;;;;;;3.7;2.3;;;;;;;17.05;88.52246;941.0042;;;;
2021/06/07 05:28:56;;;;;;;3;2.1;;;;;;;17.22;88.03516;941.0653;;;;
2021/06/07 05:31:20;;;;;;;4;2.1;;;;;;;17.33;88.27734;941.0342;;;;
2021/06/07 05:33:46;;;;;;;2.3;1.6;;;;;;;17.29;87.00391;941.0388;;;;
2021/06/07 05:36:11;;;;;;;1.8;1.6;;;;;;;17.37;86.22949;941.0991;;;;
2021/06/07 05:38:38;;;;;;;2.1;1.6;;;;;;;17.38;86.16406;941.1206;;;;
2021/06/07 05:41:04;;;;;;;2;1.8;;;;;;;17.38;86.24707;941.1383;;;;
2021/06/07 05:43:30;;;;;;;3.5;1.8;;;;;;;17.46;85.79688;941.1658;;;;
2021/06/07 05:45:55;;;;;;;3.2;1.9;;;;;;;17.51;85.77051;941.0244;;;;
2021/06/07 05:48:20;;;;;;;3.1;1.4;;;;;;;17.58;85.10059;941.1265;;;;
2021/06/07 05:50:46;;;;;;;3.4;1.6;;;;;;;17.61;84.88477;941.1245;;;;
2021/06/07 05:53:11;;;;;;;2.4;1.1;;;;;;;17.59;84.94141;941.1931;;;;
2021/06/07 05:55:36;;;;;;;3.7;1.8;;;;;;;17.63;85.40234;941.1348;;;;
2021/06/07 05:58:02;;;;;;;3;1.5;;;;;;;17.64;84.70605;941.1443;;;;
2021/06/07 06:00:28;;;;;;;8.3;1.7;;;;;;;17.54;83.72461;941.1286;;;;
2021/06/07 06:02:55;;;;;;;1.1;1;;;;;;;17.58;84.35938;941.1707;;;;
2021/06/07 06:05:20;;;;;;;4.7;1.8;;;;;;;17.53;83.51367;941.1827;;;;
2021/06/07 06:07:46;;;;;;;1.7;1.2;;;;;;;17.58;84.34766;941.1691;;;;
2021/06/07 06:10:11;;;;;;;1.4;1.2;;;;;;;17.66;83.17773;941.2078;;;;
2021/06/07 06:12:40;;;;;;;4.2;1.1;;;;;;;17.69;81.50195;941.2126;;;;
2021/06/07 06:15:05;;;;;;;3.2;1.1;;;;;;;17.71;82.07227;941.2148;;;;
2021/06/07 06:17:32;;;;;;;1.3;0.9;;;;;;;17.98;81.78613;941.1799;;;;
2021/06/07 06:19:57;;;;;;;2.5;0.8;;;;;;;18.36;81.18262;941.1594;;;;
2021/06/07 06:22:25;;;;;;;1.2;0.9;;;;;;;18.48;79.40332;941.1932;;;;
2021/06/07 06:24:50;;;;;;;1.5;0.9;;;;;;;18.77;79.28125;941.1397;;;;
2021/06/07 06:27:17;;;;;;;1.4;0.9;;;;;;;18.66;78.91211;941.2037;;;;
2021/06/07 06:29:42;;;;;;;1.1;1;;;;;;;18.92;80.95996;941.202;;;;
2021/06/07 06:32:10;;;;;;;1.4;0.8;;;;;;;18.89;80.03516;941.2121;;;;
2021/06/07 06:34:35;;;;;;;1.1;1;;;;;;;19.39;78.81055;941.2211;;;;
2021/06/07 06:37:00;;;;;;;1.6;1;;;;;;;20.12;74.77441;941.1957;;;;
2021/06/07 06:39:25;;;;;;;0.9;0.9;;;;;;;20.04;75.80957;941.158;;;;
2021/06/07 06:41:52;;;;;;;1.5;1;;;;;;;20.48;73.35059;941.2076;;;;
2021/06/07 06:44:17;;;;;;;2;0.8;;;;;;;19.9;72.92969;941.1494;;;;
2021/06/07 06:46:43;;;;;;;1.8;0.9;;;;;;;20.31;74.14063;941.1998;;;;
2021/06/07 06:49:08;;;;;;;2.6;0.9;;;;;;;20.47;71.46973;941.2338;;;;
2021/06/07 06:51:34;;;;;;;3.6;0.9;;;;;;;20;71.95313;941.2241;;;;
2021/06/07 06:53:59;;;;;;;2.8;1;;;;;;;20.02;72.36426;941.205;;;;
2021/06/07 06:56:26;;;;;;;3.6;1;;;;;;;19.13;76.64551;941.2039;;;;
2021/06/07 06:58:51;;;;;;;3.3;1.5;;;;;;;18.94;77.07715;941.1895;;;;
2021/06/07 07:01:17;;;;;;;0.9;0.7;;;;;;;18.83;76.92969;941.2325;;;;
2021/06/07 07:03:42;;;;;;;4.2;1.2;;;;;;;18.7;76.88281;941.2177;;;;
2021/06/07 07:06:12;;;;;;;2.9;0.9;;;;;;;18.7;77.36133;941.233;;;;
2021/06/07 07:08:40;;;;;;;16;2.6;;;;;;;18.57;77.84961;941.2587;;;;
2021/06/07 07:11:05;;;;;;;6.9;1.5;;;;;;;18.62;79.14844;941.2668;;;;
2021/06/07 07:13:32;;;;;;;11.2;2.2;;;;;;;18.77;80.08398;941.2955;;;;
2021/06/07 07:15:57;;;;;;;6.1;1.6;;;;;;;18.69;78.5918;941.2847;;;;
2021/06/07 07:18:22;;;;;;;2.1;0.9;;;;;;;18.58;78.04883;941.1965;;;;
2021/06/07 07:20:47;;;;;;;14.2;2.1;;;;;;;18.39;80.27246;941.1984;;;;
2021/06/07 07:23:12;;;;;;;4.5;1.1;;;;;;;18.43;78.26563;941.2198;;;;
2021/06/07 07:25:38;;;;;;;7.2;1.8;;;;;;;18.49;77.5332;941.1754;;;;
2021/06/07 07:28:03;;;;;;;13.8;2.5;;;;;;;18.54;78.64746;941.1447;;;;
2021/06/07 07:30:30;;;;;;;4.6;1;;;;;;;18.67;77.45996;941.198;;;;
2021/06/07 07:32:54;;;;;;;2;0.8;;;;;;;18.47;76.7373;941.1572;;;;
2021/06/07 07:35:19;;;;;;;3.5;1.2;;;;;;;18.37;78.05859;941.1383;;;;
2021/06/07 07:37:44;;;;;;;5;1.1;;;;;;;18.66;77.74902;941.1425;;;;
2021/06/07 07:40:12;;;;;;;2.2;0.9;;;;;;;18.8;78.41504;941.1844;;;;
2021/06/07 07:42:37;;;;;;;1.1;0.7;;;;;;;18.77;75.89551;941.1696;;;;
2021/06/07 07:45:03;;;;;;;1.5;0.7;;;;;;;18.93;76.14453;941.1501;;;;
2021/06/07 07:47:28;;;;;;;5.1;1.2;;;;;;;19.03;74.80957;941.147;;;;
2021/06/07 07:49:54;;;;;;;6.7;1.2;;;;;;;19.17;75.97559;941.1895;;;;
2021/06/07 07:52:23;;;;;;;4.3;1;;;;;;;19.24;74.48633;941.2216;;;;
2021/06/07 07:54:44;;;;;;;4.8;1.1;;;;;;;19.34;76.62207;941.1818;;;;
2021/06/07 07:57:13;;;;;;;1.3;0.7;;;;;;;19.59;75.19727;941.1603;;;;
2021/06/07 07:59:36;;;;;;;2.2;0.7;;;;;;;19.64;74.14453;941.1718;;;;
2021/06/07 08:02:02;;;;;;;5.2;1.1;;;;;;;19.6;73.98633;941.173;;;;
2021/06/07 08:04:27;;;;;;;8.3;1.9;;;;;;;19.62;74.66602;941.193;;;;
2021/06/07 08:06:53;;;;;;;1.2;0.7;;;;;;;19.88;75.23438;941.1289;;;;
2021/06/07 08:09:18;;;;;;;3.2;1;;;;;;;19.56;72.63867;941.1859;;;;
2021/06/07 08:11:45;;;;;;;5;1.1;;;;;;;19.89;75.84277;941.1869;;;;
2021/06/07 08:14:10;;;;;;;3.9;1;;;;;;;20.13;72.55859;941.1178;;;;
2021/06/07 08:16:38;;;;;;;12.7;2.5;;;;;;;20.2;72.02051;941.067;;;;
2021/06/07 08:19:04;;;;;;;7.1;1.4;;;;;;;20.38;68.39648;941.0815;;;;
2021/06/07 08:21:31;;;;;;;1.5;0.7;;;;;;;20.63;69.41504;941.113;;;;
2021/06/07 08:23:56;;;;;;;1.6;0.7;;;;;;;21.36;68.93262;941.0723;;;;
2021/06/07 08:26:24;;;;;;;1.8;1;;;;;;;22.06;66.39355;941.0494;;;;
2021/06/07 08:28:50;;;;;;;3.2;0.7;;;;;;;21.96;63.99805;941.0316;;;;
2021/06/07 08:31:16;;;;;;;1.7;0.8;;;;;;;22.12;64.13867;941.007;;;;
2021/06/07 08:33:41;;;;;;;1.6;0.8;;;;;;;22.52;63.06934;941.0096;;;;
2021/06/07 08:36:09;;;;;;;1.3;0.6;;;;;;;22.4;60.15527;940.9733;;;;
2021/06/07 08:38:34;;;;;;;1.3;0.6;;;;;;;22.31;61.57422;941.0298;;;;
2021/06/07 08:41:00;;;;;;;1.4;0.6;;;;;;;21.86;62.63672;940.9819;;;;
2021/06/07 08:43:26;;;;;;;1.2;0.5;;;;;;;21.97;61.29395;940.9728;;;;
2021/06/07 08:45:52;;;;;;;0.7;0.4;;;;;;;22.15;59.48926;940.9661;;;;
2021/06/07 08:48:17;;;;;;;0.4;0.3;;;;;;;22.24;60.36914;940.9686;;;;
2021/06/07 08:50:43;;;;;;;0.7;0.5;;;;;;;22.15;63.68555;940.9654;;;;
2021/06/07 08:53:08;;;;;;;0.5;0.5;;;;;;;22.36;62.14453;940.9972;;;;
2021/06/07 08:55:35;;;;;;;0.6;0.4;;;;;;;22.39;57.9375;940.9656;;;;
2021/06/07 08:57:59;;;;;;;0.3;0.3;;;;;;;22.73;60.59863;940.9235;;;;
2021/06/07 09:00:25;;;;;;;0.5;0.3;;;;;;;22.56;62.71289;940.9392;;;;
2021/06/07 09:02:50;;;;;;;0.6;0.5;;;;;;;22.06;64.10742;940.9439;;;;
2021/06/07 09:05:17;;;;;;;1.5;0.7;;;;;;;22.14;63.24023;940.9892;;;;
2021/06/07 09:07:42;;;;;;;0.5;0.5;;;;;;;21.69;63.42188;941.0237;;;;
2021/06/07 09:10:12;;;;;;;2.2;0.6;;;;;;;21.75;63.43945;941.027;;;;
2021/06/07 09:12:37;;;;;;;2.3;0.7;;;;;;;22.19;62.75391;941.073;;;;
2021/06/07 09:15:02;;;;;;;0.7;0.4;;;;;;;22.12;60.8916;941.0347;;;;
2021/06/07 09:17:27;;;;;;;0.5;0.5;;;;;;;22.4;59.51074;941.0756;;;;
2021/06/07 09:19:54;;;;;;;1.4;0.6;;;;;;;22.4;61.15234;941.065;;;;
2021/06/07 09:22:19;;;;;;;0.5;0.4;;;;;;;22.02;64.69922;941.0508;;;;
2021/06/07 09:24:48;;;;;;;0.6;0.5;;;;;;;21.88;64.23242;941.1013;;;;
2021/06/07 09:27:14;;;;;;;0.9;0.4;;;;;;;22.06;60.28516;941.0242;;;;
2021/06/07 09:29:39;;;;;;;0.9;0.6;;;;;;;22.02;62.0498;941.0767;;;;
2021/06/07 09:32:06;;;;;;;1.5;0.6;;;;;;;22.06;61.98633;941.0964;;;;
2021/06/07 09:34:31;;;;;;;0.4;0.4;;;;;;;22.04;61.46777;940.9955;;;;
2021/06/07 09:36:57;;;;;;;0.5;0.5;;;;;;;21.93;62.91602;941.0835;;;;
2021/06/07 09:39:23;;;;;;;1.1;0.5;;;;;;;21.69;61.89941;941.1047;;;;
2021/06/07 09:41:48;;;;;;;2.7;0.6;;;;;;;21.2;64.75586;941.0759;;;;
2021/06/07 09:44:13;;;;;;;4.1;0.6;;;;;;;21.01;66.53906;941.1462;;;;
2021/06/07 09:46:38;;;;;;;2.1;0.5;;;;;;;20.62;71.5752;941.1672;;;;
2021/06/07 09:49:03;;;;;;;0.9;0.5;;;;;;;21.09;68.14258;941.0806;;;;
2021/06/07 09:51:29;;;;;;;1.5;0.5;;;;;;;21.29;66.80371;941.126;;;;
2021/06/07 09:53:55;;;;;;;0.5;0.5;;;;;;;20.84;67.76465;941.1655;;;;
2021/06/07 09:56:21;;;;;;;0.9;0.5;;;;;;;20.66;69.85156;941.1308;;;;
2021/06/07 09:58:46;;;;;;;1.9;0.5;;;;;;;20.88;70.41211;941.1191;;;;
2021/06/07 10:01:13;;;;;;;1.5;0.5;;;;;;;21.15;68.31543;941.0661;;;;
2021/06/07 10:03:42;;;;;;;0.7;0.7;;;;;;;21.06;68.42969;941.0483;;;;
2021/06/07 10:06:01;;;;;;;0.8;0.8;;;;;;;20.9;68.13672;941.0796;;;;
2021/06/07 10:08:27;;;;;;;1;0.6;;;;;;;20.69;70.48828;941.0928;;;;
2021/06/07 10:10:53;;;;;;;1.2;0.6;;;;;;;20.7;68.81738;941.0433;;;;
2021/06/07 10:13:17;;;;;;;0.9;0.6;;;;;;;20.51;69.99219;940.9975;;;;
2021/06/07 10:15:43;;;;;;;3.1;0.8;;;;;;;20.13;72.66309;941.0353;;;;
2021/06/07 10:18:08;;;;;;;3.2;1.2;;;;;;;19.73;74.68359;941.0729;;;;
2021/06/07 10:20:50;;;;;;;4.4;0.7;;;;;;;19.61;73.23047;941.0047;;;;
2021/06/07 10:23:01;;;;;;;4.2;1.7;;;;;;;19.78;73.29395;941.0443;;;;
2021/06/07 10:25:31;;;;;;;1.8;0.9;;;;;;;20.05;71.84668;941.0639;;;;
2021/06/07 10:27:56;;;;;;;2.1;0.8;;;;;;;20.2;70.85449;941.1194;;;;
2021/06/07 10:30:21;;;;;;;5.3;1;;;;;;;20.09;72.94824;941.0978;;;;
2021/06/07 10:32:46;;;;;;;2.2;1.1;;;;;;;20.26;73.20996;941.1177;;;;
2021/06/07 10:35:14;;;;;;;2.1;1.2;;;;;;;20.15;72.75977;941.1166;;;;
2021/06/07 10:37:38;;;;;;;10.8;6.6;;;;;;;20.26;72.59277;941.1411;;;;
2021/06/07 10:40:04;;;;;;;1.3;1;;;;;;;20.32;72.14551;941.1825;;;;
2021/06/07 10:42:31;;;;;;;1;0.9;;;;;;;20.65;69.85059;941.1487;;;;
2021/06/07 10:44:56;;;;;;;1.2;1;;;;;;;20.56;70.1748;941.1403;;;;
2021/06/07 10:47:21;;;;;;;1.5;0.8;;;;;;;20.58;69.95703;941.1631;;;;
2021/06/07 10:49:48;;;;;;;2.1;1;;;;;;;20.7;70.37305;941.1831;;;;
2021/06/07 10:52:13;;;;;;;1.2;0.7;;;;;;;20.91;68.44238;941.1903;;;;
2021/06/07 10:54:40;;;;;;;5;1;;;;;;;20.28;72.01172;941.2206;;;;
2021/06/07 10:57:05;;;;;;;0.7;0.7;;;;;;;20.63;69.22852;941.1987;;;;
2021/06/07 10:59:31;;;;;;;1.8;0.9;;;;;;;21.05;68.26367;941.2632;;;;
2021/06/07 11:01:59;;;;;;;0.9;0.7;;;;;;;21.08;67.35742;941.2419;;;;
2021/06/07 11:04:24;;;;;;;3.9;0.7;;;;;;;20.47;70.58203;941.2078;;;;
2021/06/07 11:06:49;;;;;;;0.8;0.8;;;;;;;20.5;70.23633;941.2031;;;;
2021/06/07 11:09:15;;;;;;;1.6;0.7;;;;;;;20.21;72.05859;941.1896;;;;
2021/06/07 11:11:41;;;;;;;1.7;0.7;;;;;;;20.05;73.16406;941.1408;;;;
2021/06/07 11:14:05;;;;;;;0.7;0.7;;;;;;;20.61;71.89941;941.1091;;;;
2021/06/07 11:16:31;;;;;;;2.1;0.6;;;;;;;20.72;69.76855;941.0961;;;;
2021/06/07 11:19:01;;;;;;;1.7;0.6;;;;;;;20.96;68.72949;941.0853;;;;
2021/06/07 11:21:26;;;;;;;1.6;0.6;;;;;;;21.32;67.89648;941.024;;;;
2021/06/07 11:23:53;;;;;;;1.6;0.7;;;;;;;21.35;67.78516;940.9412;;;;
2021/06/07 11:26:18;;;;;;;0.7;0.6;;;;;;;21.82;65.68945;941.0486;;;;
2021/06/07 11:28:43;;;;;;;0.6;0.6;;;;;;;22.5;63.7373;940.9922;;;;
2021/06/07 11:31:08;;;;;;;0.6;0.6;;;;;;;23.11;61.67383;940.9584;;;;
2021/06/07 11:33:36;;;;;;;1.9;0.6;;;;;;;22.68;64.0791;940.9138;;;;
2021/06/07 11:36:01;;;;;;;2.6;0.7;;;;;;;21.89;64.16309;940.8635;;;;
2021/06/07 11:38:26;;;;;;;1.8;0.8;;;;;;;21.52;66.97949;940.8679;;;;
2021/06/07 11:40:54;;;;;;;1;0.9;;;;;;;21.46;67.02832;940.8769;;;;
2021/06/07 11:43:23;;;;;;;1.3;1;;;;;;;21.43;68.63965;940.8033;;;;
2021/06/07 11:45:51;;;;;;;1.3;0.8;;;;;;;21.71;68.50781;940.7825;;;;
2021/06/07 11:48:21;;;;;;;0.8;0.6;;;;;;;22.6;63.28125;940.7253;;;;
2021/06/07 11:50:51;;;;;;;0.9;0.8;;;;;;;22.49;65.47168;940.7662;;;;
2021/06/07 11:53:17;;;;;;;0.7;0.7;;;;;;;22.45;64.36328;940.6926;;;;
2021/06/07 11:55:41;;;;;;;0.7;0.6;;;;;;;23.02;62.35449;940.7231;;;;
2021/06/07 11:58:06;;;;;;;1.1;0.8;;;;;;;22.29;64.57422;940.6701;;;;
2021/06/07 12:00:31;;;;;;;3.4;0.8;;;;;;;21.74;66.52051;940.6479;;;;
2021/06/07 12:02:57;;;;;;;1.4;0.6;;;;;;;21.35;68.73242;940.6658;;;;
2021/06/07 12:05:22;;;;;;;0.6;0.6;;;;;;;21.63;66.77539;940.6558;;;;
2021/06/07 12:07:48;;;;;;;1.3;0.6;;;;;;;21.73;66.22656;940.6465;;;;
2021/06/07 12:10:14;;;;;;;1.5;0.7;;;;;;;21.48;67.74512;940.6602;;;;
2021/06/07 12:12:39;;;;;;;1.6;1.1;;;;;;;21.58;67.54004;940.597;;;;
2021/06/07 12:15:05;;;;;;;2.8;0.8;;;;;;;21.85;65.17773;940.524;;;;
2021/06/07 12:17:30;;;;;;;1.7;0.7;;;;;;;22.01;65.23633;940.5369;;;;
2021/06/07 12:19:56;;;;;;;4.6;0.7;;;;;;;21.95;65.35742;940.5087;;;;
2021/06/07 12:22:20;;;;;;;1.7;0.6;;;;;;;21.78;66.76172;940.5331;;;;
2021/06/07 12:24:46;;;;;;;1.8;0.7;;;;;;;21.7;67.04199;940.5516;;;;
2021/06/07 12:29:37;;;;;;;0.7;0.7;;;;;;;21.85;68.96191;940.4875;;;;
2021/06/07 12:32:02;;;;;;;0.8;0.8;;;;;;;22.56;64.57813;940.4562;;;;
2021/06/07 12:34:28;;;;;;;1.6;0.8;;;;;;;22.51;68.88867;940.4652;;;;
2021/06/07 12:36:54;;;;;;;1.6;0.8;;;;;;;22.78;65.84277;940.4256;;;;
2021/06/07 12:39:23;;;;;;;0.8;0.8;;;;;;;22.95;62.7793;940.4285;;;;
2021/06/07 12:41:48;;;;;;;1.4;0.9;;;;;;;23.43;62.22363;940.3691;;;;
2021/06/07 12:44:13;;;;;;;5.6;0.9;;;;;;;23.12;64.1416;940.2822;;;;
2021/06/07 12:46:39;;;;;;;0.7;0.7;;;;;;;23.08;62.86719;940.2944;;;;
2021/06/07 12:49:12;;;;;;;0.8;0.8;;;;;;;22.96;62.79297;940.3013;;;;
2021/06/07 12:51:33;;;;;;;2.2;1.1;;;;;;;22.73;63.59375;940.255;;;;
2021/06/07 12:53:58;;;;;;;0.8;0.7;;;;;;;23.31;62.7002;940.3138;;;;
2021/06/07 12:56:34;;;;;;;1.3;0.9;;;;;;;23.97;60.0625;940.3112;;;;
2021/06/07 12:58:58;;;;;;;0.7;0.7;;;;;;;23.6;61.0127;940.2482;;;;
2021/06/07 13:01:23;;;;;;;2.1;1;;;;;;;23.85;59.75195;940.1995;;;;
2021/06/07 13:03:49;;;;;;;3.1;0.8;;;;;;;24.36;58.26563;940.1499;;;;
2021/06/07 13:06:16;;;;;;;1.1;0.7;;;;;;;24.07;61.04004;940.1417;;;;
2021/06/07 13:08:40;;;;;;;0.8;0.7;;;;;;;23.39;65.49805;940.1719;;;;
2021/06/07 13:11:05;;;;;;;0.7;0.7;;;;;;;23.18;62.54199;940.1465;;;;
2021/06/07 13:13:31;;;;;;;1.4;0.7;;;;;;;22.92;63.71387;940.0567;;;;
2021/06/07 13:15:59;;;;;;;0.8;0.8;;;;;;;22.42;63.83105;940.1156;;;;
2021/06/07 13:18:24;;;;;;;0.8;0.7;;;;;;;22.75;65.69922;940.1537;;;;
2021/06/07 13:20:49;;;;;;;1.6;0.7;;;;;;;23.15;61.19727;940.1203;;;;
2021/06/07 13:23:14;;;;;;;1.4;0.9;;;;;;;23.06;63.46387;940.1171;;;;
2021/06/07 13:25:40;;;;;;;1.2;1;;;;;;;22.94;62.56641;940.1412;;;;
2021/06/07 13:28:05;;;;;;;1;0.9;;;;;;;22.93;64.38379;940.0549;;;;
2021/06/07 13:30:30;;;;;;;0.7;0.7;;;;;;;22.86;62.34375;940.106;;;;
2021/06/07 13:32:55;;;;;;;1.5;0.9;;;;;;;22.68;62.41309;940.0839;;;;
2021/06/07 13:35:23;;;;;;;4.4;1.3;;;;;;;22.26;63.1748;940.0276;;;;
2021/06/07 13:37:46;;;;;;;1;1;;;;;;;21.89;66.33301;940.0533;;;;
2021/06/07 13:40:11;;;;;;;0.8;0.8;;;;;;;21.76;65.93848;940.0684;;;;
2021/06/07 13:42:38;;;;;;;1.9;1.1;;;;;;;21.95;65.64941;940.0831;;;;
2021/06/07 13:45:03;;;;;;;1.4;1.2;;;;;;;21.94;64.44141;940.0745;;;;
2021/06/07 13:47:29;;;;;;;5.1;1.6;;;;;;;22.27;64.87598;940.0217;;;;
2021/06/07 13:49:54;;;;;;;1.7;1.2;;;;;;;21.97;65.54785;940.0245;;;;
2021/06/07 13:52:20;;;;;;;1.7;1.3;;;;;;;21.97;65.02051;940.1155;;;;
2021/06/07 13:54:46;;;;;;;1.2;0.9;;;;;;;21.94;65.37891;940.1305;;;;
2021/06/07 13:57:11;;;;;;;1.1;1;;;;;;;21.8;65.65039;940.0842;;;;
2021/06/07 13:59:36;;;;;;;1.2;1;;;;;;;21.95;65.67383;940.1291;;;;
2021/06/07 14:02:01;;;;;;;1.1;1;;;;;;;22.13;64.85547;940.1614;;;;
2021/06/07 14:04:27;;;;;;;1.4;1.3;;;;;;;22.21;65.51172;940.1548;;;;
2021/06/07 14:06:53;;;;;;;1.2;1;;;;;;;22.04;66.44824;940.2128;;;;
2021/06/07 14:09:20;;;;;;;1.9;1.2;;;;;;;22.1;65.50781;940.1809;;;;
2021/06/07 14:11:45;;;;;;;3;1.5;;;;;;;22.09;65.84473;940.2196;;;;
2021/06/07 14:14:11;;;;;;;1.8;1.4;;;;;;;21.95;66.42285;940.2315;;;;
2021/06/07 14:16:35;;;;;;;3.5;1.4;;;;;;;21.75;66.97852;940.2542;;;;
2021/06/07 14:19:03;;;;;;;3.5;1.6;;;;;;;21.58;68.69922;940.2745;;;;
2021/06/07 14:21:29;;;;;;;4.1;1.4;;;;;;;21.46;69.82617;940.3544;;;;
2021/06/07 14:26:19;;;;;;;1.4;1.3;;;;;;;21.29;72.51465;940.4481;;;;
2021/06/07 14:28:48;;;;;;;2.4;1.3;;;;;;;21.19;73.35156;940.4972;;;;
2021/06/07 14:31:13;;;;;;;1.5;1.1;;;;;;;21.14;73.3916;940.4394;;;;
2021/06/07 14:33:39;;;;;;;1.2;1;;;;;;;20.47;77.2168;940.4312;;;;
2021/06/07 14:36:04;;;;;;;1.3;1.2;;;;;;;20.34;77.37988;940.4486;;;;
2021/06/07 14:38:30;;;;;;;1.4;1;;;;;;;20.46;76.98145;940.3676;;;;
2021/06/07 14:41:01;;;;;;;3.4;1.1;;;;;;;20.48;76.33105;940.3883;;;;
2021/06/07 14:43:21;;;;;;;1.5;1.4;;;;;;;20.47;76.60742;940.3973;;;;
2021/06/07 14:45:47;;;;;;;1.3;1.2;;;;;;;20.42;76.38965;940.3872;;;;
2021/06/07 14:48:12;;;;;;;1;1;;;;;;;20.35;76.40234;940.4052;;;;
2021/06/07 14:50:40;;;;;;;1.6;1.1;;;;;;;20.24;77.68945;940.3837;;;;
2021/06/07 14:53:04;;;;;;;2.2;1.3;;;;;;;20.24;77.6543;940.3686;;;;
2021/06/07 14:55:31;;;;;;;1.6;1.3;;;;;;;20.18;78.67188;940.3833;;;;
2021/06/07 14:57:56;;;;;;;6.6;1.5;;;;;;;20.06;78.38086;940.3936;;;;
2021/06/07 15:00:21;;;;;;;1.5;1.2;;;;;;;19.68;76.32031;940.4235;;;;
2021/06/07 15:02:46;;;;;;;0.9;0.8;;;;;;;19.39;74.69629;940.4749;;;;
2021/06/07 15:05:12;;;;;;;2;0.8;;;;;;;19.1;73.50586;940.4241;;;;
2021/06/07 15:07:37;;;;;;;1.1;0.7;;;;;;;18.89;75.65918;940.4093;;;;
2021/06/07 15:10:03;;;;;;;2.2;0.9;;;;;;;18.86;76.69043;940.4114;;;;
2021/06/07 15:12:28;;;;;;;1.8;1;;;;;;;18.94;75.23828;940.3775;;;;
2021/06/07 15:14:56;;;;;;;3.1;1;;;;;;;19.03;76.55762;940.3229;;;;
2021/06/07 15:17:21;;;;;;;2.2;0.8;;;;;;;18.92;78.64355;940.2795;;;;
2021/06/07 15:19:48;;;;;;;3.6;0.8;;;;;;;18.79;80.12207;940.2704;;;;
2021/06/07 15:22:13;;;;;;;1.8;0.7;;;;;;;18.77;79.1084;940.3208;;;;
2021/06/07 15:24:40;;;;;;;2.8;0.5;;;;;;;18.42;77.89258;940.2683;;;;
2021/06/07 15:27:05;;;;;;;1.8;1.1;;;;;;;18.55;77.77637;940.3017;;;;
2021/06/07 15:29:30;;;;;;;2.2;0.9;;;;;;;18.63;78.46582;940.2202;;;;
2021/06/07 15:31:55;;;;;;;4.9;2;;;;;;;18.59;78.55078;940.2219;;;;
2021/06/07 15:34:20;;;;;;;5.7;1.5;;;;;;;18.66;80.05273;940.1832;;;;
2021/06/07 15:36:46;;;;;;;6.5;1.6;;;;;;;18.52;81.17871;940.1465;;;;
2021/06/07 15:39:13;;;;;;;3.4;1.6;;;;;;;18.53;80.38965;940.1036;;;;